Time;durP1;ratioP1;P1;durP2;ratioP2;P2;SDS_P1;SDS_P2;PMS_P1;PMS_P2;Temp;Humidity;BMP_temperature;BMP_pressure;BME280_temperature;BME280_humidity;BME280_pressure;Samples;Min_cycle;Max_cycle;Signal;HPM_P1;HPM_P2
2022/01/27 00:00:43;;;;;;;2.10;0.67;;;;;;;;;;5046114;28;20082;-68
2022/01/27 00:03:20;;;;;;;2.63;0.90;;;;;;;;;;5050968;28;20035;-69
2022/01/27 00:06:03;;;;;;;1.03;0.70;;;;;;;;;;5060021;28;20158;-69
2022/01/27 00:11:23;;;;;;;1.03;0.60;;;;;;;;;;5068162;28;20066;-64
2022/01/27 00:14:00;;;;;;;1.47;0.60;;;;;;;;;;5070032;28;20025;-71
2022/01/27 00:16:30;;;;;;;3.20;0.70;;;;;;;;;;5052658;28;20033;-71
2022/01/27 00:18:58;;;;;;;2.70;0.70;;;;;;;;;;5046563;28;20040;-69
2022/01/27 00:21:30;;;;;;;1.63;0.67;;;;;;;;;;5046565;28;20110;-71
2022/01/27 00:23:57;;;;;;;1.00;0.50;;;;;;;;;;5047425;28;20475;-68
2022/01/27 00:26:25;;;;;;;1.40;0.57;;;;;;;;;;5063476;28;20021;-68
2022/01/27 00:28:52;;;;;;;1.63;0.80;;;;;;;;;;5070756;28;20368;-70
2022/01/27 00:31:20;;;;;;;1.30;0.50;;;;;;;;;;5071276;28;20028;-69
2022/01/27 00:33:48;;;;;;;1.13;0.50;;;;;;;;;;5060380;28;20029;-70
2022/01/27 00:36:15;;;;;;;3.63;1.10;;;;;;;;;;5060661;28;20043;-70
2022/01/27 00:38:42;;;;;;;4.17;1.20;;;;;;;;;;5066215;28;20025;-66
2022/01/27 00:41:09;;;;;;;1.40;0.87;;;;;;;;;;5066286;28;20024;-69
2022/01/27 00:43:36;;;;;;;2.83;1.00;;;;;;;;;;5049805;28;20029;-67
2022/01/27 00:46:08;;;;;;;4.87;1.80;;;;;;;;;;5055811;28;20366;-68
2022/01/27 00:48:35;;;;;;;4.90;2.10;;;;;;;;;;5069401;28;20032;-68
2022/01/27 00:51:04;;;;;;;6.43;3.03;;;;;;;;;;5071077;28;20063;-66
2022/01/27 00:53:54;;;;;;;10.27;4.07;;;;;;;;;;5071029;28;20025;-68
2022/01/27 00:56:26;;;;;;;6.57;2.40;;;;;;;;;;5070869;28;20016;-67
2022/01/27 00:59:05;;;;;;;8.53;2.80;;;;;;;;;;5060697;28;20025;-69
2022/01/27 01:01:38;;;;;;;5.17;2.10;;;;;;;;;;5045824;28;20029;-72
2022/01/27 01:04:08;;;;;;;5.60;1.57;;;;;;;;;;5045281;28;20047;-69
2022/01/27 01:06:40;;;;;;;4.43;1.60;;;;;;;;;;5045752;28;20108;-71
2022/01/27 01:17:26;;;;;;;6.10;2.40;;;;;;;;;;5070622;28;20010;-70
2022/01/27 01:33:09;;;;;;;4.27;1.10;;;;;;;;;;5065048;28;20108;-70
2022/01/27 01:35:50;;;;;;;3.50;1.40;;;;;;;;;;5051141;28;20534;-71
2022/01/27 01:38:18;;;;;;;1.93;1.17;;;;;;;;;;5049852;28;20029;-71
2022/01/27 01:40:49;;;;;;;3.87;1.60;;;;;;;;;;5049195;28;20510;-72
2022/01/27 01:43:17;;;;;;;2.13;1.30;;;;;;;;;;5035445;28;20022;-70
2022/01/27 01:45:45;;;;;;;3.07;1.20;;;;;;;;;;5030811;28;20113;-68
2022/01/27 01:48:12;;;;;;;3.43;1.43;;;;;;;;;;5045372;28;20033;-70
2022/01/27 01:50:40;;;;;;;2.00;1.10;;;;;;;;;;5045202;28;20025;-67
2022/01/27 01:53:08;;;;;;;1.97;1.10;;;;;;;;;;5045083;28;20025;-72
2022/01/27 01:55:36;;;;;;;2.83;1.20;;;;;;;;;;5053409;28;20020;-70
2022/01/27 01:58:03;;;;;;;3.10;0.90;;;;;;;;;;5069849;28;20044;-69
2022/01/27 02:00:31;;;;;;;2.73;1.20;;;;;;;;;;5068543;28;20035;-67
2022/01/27 02:02:58;;;;;;;3.53;1.30;;;;;;;;;;5050951;28;20032;-71
2022/01/27 02:05:31;;;;;;;4.67;0.90;;;;;;;;;;5048522;28;20085;-69
2022/01/27 02:19:21;;;;;;;1.23;0.80;;;;;;;;;;5069385;28;20055;-69
2022/01/27 02:21:50;;;;;;;2.33;1.20;;;;;;;;;;5069589;28;20831;-69
2022/01/27 02:24:18;;;;;;;2.73;1.00;;;;;;;;;;5069566;28;20029;-69
2022/01/27 02:26:48;;;;;;;2.80;1.20;;;;;;;;;;5058686;28;20025;-69
2022/01/27 02:29:15;;;;;;;3.73;0.70;;;;;;;;;;5045197;28;20049;-69
2022/01/27 02:31:42;;;;;;;1.40;0.90;;;;;;;;;;5044454;28;20025;-71
2022/01/27 02:34:09;;;;;;;2.83;1.30;;;;;;;;;;5044477;28;20429;-67
2022/01/27 02:36:36;;;;;;;3.63;1.50;;;;;;;;;;5053166;28;20057;-67
2022/01/27 02:39:06;;;;;;;2.37;1.10;;;;;;;;;;5067919;28;20029;-68
2022/01/27 02:41:37;;;;;;;1.80;0.90;;;;;;;;;;5069362;28;20029;-68
2022/01/27 02:44:04;;;;;;;1.77;0.77;;;;;;;;;;5049242;28;20379;-68
2022/01/27 02:46:35;;;;;;;1.67;0.90;;;;;;;;;;5056880;28;20077;-68
2022/01/27 02:49:03;;;;;;;2.40;1.10;;;;;;;;;;5068871;28;20025;-68
2022/01/27 02:51:30;;;;;;;1.57;0.80;;;;;;;;;;5065742;28;20521;-68
2022/01/27 02:53:57;;;;;;;1.67;0.80;;;;;;;;;;5066119;28;20025;-68
2022/01/27 02:56:24;;;;;;;1.70;0.77;;;;;;;;;;5048085;28;20035;-66
2022/01/27 02:58:51;;;;;;;1.30;0.80;;;;;;;;;;5047615;28;20736;-67
2022/01/27 03:01:19;;;;;;;2.83;0.73;;;;;;;;;;5051120;28;20051;-67
2022/01/27 03:03:46;;;;;;;2.40;1.00;;;;;;;;;;5052564;28;20040;-67
2022/01/27 03:06:14;;;;;;;3.03;0.80;;;;;;;;;;5069792;28;20025;-67
2022/01/27 03:08:41;;;;;;;1.00;0.77;;;;;;;;;;5072503;28;20489;-67
2022/01/27 03:11:14;;;;;;;2.70;1.17;;;;;;;;;;5053678;28;20029;-67
2022/01/27 03:13:42;;;;;;;2.60;0.90;;;;;;;;;;5048492;28;20558;-67
2022/01/27 03:16:09;;;;;;;2.27;0.97;;;;;;;;;;5047637;28;20025;-67
2022/01/27 03:18:36;;;;;;;1.03;0.70;;;;;;;;;;5047482;28;20388;-67
2022/01/27 03:21:04;;;;;;;2.07;0.90;;;;;;;;;;5049369;28;20021;-67
2022/01/27 03:23:31;;;;;;;1.67;0.80;;;;;;;;;;5070577;28;20036;-67
2022/01/27 03:25:58;;;;;;;3.50;0.97;;;;;;;;;;5053660;28;20041;-67
2022/01/27 03:28:27;;;;;;;2.63;1.20;;;;;;;;;;5052547;28;20552;-67
2022/01/27 03:30:54;;;;;;;2.07;1.00;;;;;;;;;;5052235;28;20021;-67
2022/01/27 03:33:21;;;;;;;2.00;1.00;;;;;;;;;;5052197;28;20021;-67
2022/01/27 03:35:48;;;;;;;2.67;1.20;;;;;;;;;;5063789;28;20040;-67
2022/01/27 03:38:14;;;;;;;2.97;1.00;;;;;;;;;;5066711;28;20386;-67
2022/01/27 03:40:41;;;;;;;2.37;1.33;;;;;;;;;;5067136;28;20023;-67
2022/01/27 03:43:09;;;;;;;2.10;1.10;;;;;;;;;;5037016;27;20036;-67
2022/01/27 03:45:39;;;;;;;2.03;1.20;;;;;;;;;;5063035;28;20047;-67
2022/01/27 03:48:09;;;;;;;6.40;1.10;;;;;;;;;;5072060;28;20027;-66
2022/01/27 03:50:39;;;;;;;2.00;1.10;;;;;;;;;;5071965;28;20024;-67
2022/01/27 03:53:09;;;;;;;2.17;1.13;;;;;;;;;;5071429;28;20025;-67
2022/01/27 03:55:36;;;;;;;3.50;1.30;;;;;;;;;;5058339;28;20493;-67
2022/01/27 03:58:03;;;;;;;2.50;1.10;;;;;;;;;;5048352;28;20029;-67
2022/01/27 04:00:29;;;;;;;2.00;1.07;;;;;;;;;;5046657;28;20501;-68
2022/01/27 04:03:03;;;;;;;1.53;1.00;;;;;;;;;;5046658;28;20048;-67
2022/01/27 04:05:36;;;;;;;1.87;1.23;;;;;;;;;;5026773;28;20041;-68
2022/01/27 04:08:04;;;;;;;1.63;0.87;;;;;;;;;;5047331;27;20033;-66
2022/01/27 04:10:31;;;;;;;1.67;0.90;;;;;;;;;;5051394;28;20495;-65
2022/01/27 04:12:58;;;;;;;3.13;0.90;;;;;;;;;;5051668;28;20032;-68
2022/01/27 04:15:25;;;;;;;0.97;0.60;;;;;;;;;;5051534;28;20052;-64
2022/01/27 04:17:52;;;;;;;1.77;0.80;;;;;;;;;;5051677;28;20380;-62
2022/01/27 04:20:19;;;;;;;1.17;0.70;;;;;;;;;;5067985;28;20048;-65
2022/01/27 04:22:46;;;;;;;1.17;0.70;;;;;;;;;;5065961;28;20048;-66
2022/01/27 04:25:14;;;;;;;2.33;0.80;;;;;;;;;;5066071;28;20040;-67
2022/01/27 04:27:45;;;;;;;2.10;1.00;;;;;;;;;;5066164;28;20770;-70
2022/01/27 04:30:17;;;;;;;1.50;0.80;;;;;;;;;;5050022;28;20419;-72
2022/01/27 04:32:49;;;;;;;4.37;1.30;;;;;;;;;;5033402;28;20029;-72
2022/01/27 04:35:19;;;;;;;1.67;0.90;;;;;;;;;;5050424;27;20101;-67
2022/01/27 04:40:32;;;;;;;3.03;1.03;;;;;;;;;;5058524;28;20107;-70
2022/01/27 04:45:59;;;;;;;2.43;1.30;;;;;;;;;;5026292;28;20114;-62
2022/01/27 04:48:31;;;;;;;1.53;0.80;;;;;;;;;;5031940;28;20395;-64
2022/01/27 04:51:05;;;;;;;1.93;0.87;;;;;;;;;;5033204;28;20155;-69
2022/01/27 04:53:36;;;;;;;1.52;0.93;;;;;;;;;;5037703;28;20479;-69
2022/01/27 04:56:03;;;;;;;1.10;0.70;;;;;;;;;;5030670;28;20017;-69
2022/01/27 04:58:32;;;;;;;3.10;1.00;;;;;;;;;;5051815;28;20040;-70
2022/01/27 05:01:02;;;;;;;1.33;0.90;;;;;;;;;;5070537;28;20037;-68
2022/01/27 05:06:02;;;;;;;4.07;0.90;;;;;;;;;;5050968;28;20022;-68
2022/01/27 05:08:29;;;;;;;2.30;0.90;;;;;;;;;;5039244;28;20043;-70
2022/01/27 05:11:00;;;;;;;1.27;0.73;;;;;;;;;;5047946;28;20025;-70
2022/01/27 05:13:30;;;;;;;3.03;0.97;;;;;;;;;;5063945;28;20029;-70
2022/01/27 05:15:57;;;;;;;1.90;1.07;;;;;;;;;;5070135;28;20017;-69
2022/01/27 05:18:24;;;;;;;2.07;1.17;;;;;;;;;;5070378;28;20021;-66
2022/01/27 05:20:50;;;;;;;1.90;0.80;;;;;;;;;;5070896;28;20366;-68
2022/01/27 05:23:17;;;;;;;2.13;0.90;;;;;;;;;;5049266;28;20371;-68
2022/01/27 05:25:44;;;;;;;2.80;1.10;;;;;;;;;;5050417;28;20029;-68
2022/01/27 05:28:11;;;;;;;4.47;1.33;;;;;;;;;;5063082;28;20033;-67
2022/01/27 05:30:38;;;;;;;6.23;1.10;;;;;;;;;;5065167;28;20111;-68
2022/01/27 05:33:05;;;;;;;2.77;0.87;;;;;;;;;;5065286;28;20456;-68
2022/01/27 05:35:32;;;;;;;3.60;1.13;;;;;;;;;;5049975;28;20467;-63
2022/01/27 05:37:59;;;;;;;3.53;0.93;;;;;;;;;;5050008;28;20027;-64
2022/01/27 05:40:26;;;;;;;2.10;1.20;;;;;;;;;;5048016;28;20025;-65
2022/01/27 05:42:53;;;;;;;2.47;0.97;;;;;;;;;;5065373;28;20036;-65
2022/01/27 05:45:20;;;;;;;2.20;0.87;;;;;;;;;;5050126;28;20487;-64
2022/01/27 05:47:47;;;;;;;3.10;1.20;;;;;;;;;;5049737;28;20029;-64
2022/01/27 05:50:13;;;;;;;2.87;1.43;;;;;;;;;;5045125;28;20017;-67
2022/01/27 05:52:40;;;;;;;1.53;0.90;;;;;;;;;;5057424;28;20029;-66
2022/01/27 05:55:08;;;;;;;5.57;1.83;;;;;;;;;;5064576;28;20017;-66
2022/01/27 05:57:34;;;;;;;6.63;1.17;;;;;;;;;;5044264;28;20060;-68
2022/01/27 06:00:01;;;;;;;3.30;1.20;;;;;;;;;;5028521;28;20384;-68
2022/01/27 06:02:28;;;;;;;1.77;0.93;;;;;;;;;;5052191;28;20028;-68
2022/01/27 06:04:55;;;;;;;1.33;0.80;;;;;;;;;;5069250;28;20390;-68
2022/01/27 06:07:22;;;;;;;2.23;1.20;;;;;;;;;;5069429;28;20020;-69
2022/01/27 06:09:50;;;;;;;2.13;1.10;;;;;;;;;;5069183;28;20017;-68
2022/01/27 06:12:16;;;;;;;2.33;1.10;;;;;;;;;;5055399;28;20532;-68
2022/01/27 06:14:43;;;;;;;4.47;1.10;;;;;;;;;;5044016;28;20113;-68
2022/01/27 06:17:10;;;;;;;4.87;1.10;;;;;;;;;;5044416;28;20081;-68
2022/01/27 06:19:36;;;;;;;2.10;0.83;;;;;;;;;;5044442;28;20025;-68
2022/01/27 06:22:11;;;;;;;2.57;0.93;;;;;;;;;;5054580;28;20032;-68
2022/01/27 06:24:41;;;;;;;2.22;0.90;;;;;;;;;;5069328;28;20503;-68
2022/01/27 06:27:08;;;;;;;4.60;1.10;;;;;;;;;;5068402;28;20032;-68
2022/01/27 06:29:34;;;;;;;1.83;1.00;;;;;;;;;;5068995;28;20020;-67
2022/01/27 06:32:02;;;;;;;2.13;0.93;;;;;;;;;;5061954;28;20017;-67
2022/01/27 06:34:28;;;;;;;1.80;0.90;;;;;;;;;;5045243;28;20482;-67
2022/01/27 06:36:55;;;;;;;8.60;1.10;;;;;;;;;;5044104;28;20467;-68
2022/01/27 06:39:22;;;;;;;0.90;0.60;;;;;;;;;;5043884;28;20025;-67
2022/01/27 06:41:48;;;;;;;2.03;1.10;;;;;;;;;;5048520;28;20593;-67
2022/01/27 06:44:15;;;;;;;2.23;0.90;;;;;;;;;;5055807;28;20036;-68
2022/01/27 06:46:42;;;;;;;1.87;0.80;;;;;;;;;;5065105;28;20035;-67
2022/01/27 06:49:16;;;;;;;7.83;1.30;;;;;;;;;;5069016;28;20068;-67
2022/01/27 06:51:43;;;;;;;1.90;1.33;;;;;;;;;;5068896;28;20042;-67
2022/01/27 06:54:10;;;;;;;3.87;1.30;;;;;;;;;;5068800;28;20027;-67
2022/01/27 06:56:37;;;;;;;1.77;0.80;;;;;;;;;;5044830;28;20044;-67
2022/01/27 06:59:04;;;;;;;1.47;0.77;;;;;;;;;;5023559;28;20025;-67
2022/01/27 07:01:30;;;;;;;1.50;0.80;;;;;;;;;;5023909;28;20082;-68
2022/01/27 07:03:57;;;;;;;2.33;1.43;;;;;;;;;;5023488;28;20040;-68
2022/01/27 07:06:24;;;;;;;2.13;1.03;;;;;;;;;;5053334;28;20056;-67
2022/01/27 07:08:50;;;;;;;1.30;0.77;;;;;;;;;;5068249;28;20081;-67
2022/01/27 07:11:17;;;;;;;1.17;0.80;;;;;;;;;;5068520;28;20033;-67
2022/01/27 07:13:44;;;;;;;1.33;0.70;;;;;;;;;;5068908;28;20370;-68
2022/01/27 07:16:11;;;;;;;3.80;1.13;;;;;;;;;;5057356;28;20112;-67
2022/01/27 07:18:38;;;;;;;7.47;0.90;;;;;;;;;;5045795;28;20093;-68
2022/01/27 07:21:05;;;;;;;1.73;1.03;;;;;;;;;;5043105;28;20104;-68
2022/01/27 07:23:32;;;;;;;1.93;0.90;;;;;;;;;;5043387;28;20923;-67
2022/01/27 07:25:59;;;;;;;3.60;0.90;;;;;;;;;;5052154;28;20166;-67
2022/01/27 07:28:26;;;;;;;1.90;1.00;;;;;;;;;;5065220;28;20076;-67
2022/01/27 07:30:53;;;;;;;1.80;0.80;;;;;;;;;;5068436;28;20467;-67
2022/01/27 07:33:19;;;;;;;2.50;1.20;;;;;;;;;;5068195;28;20604;-67
2022/01/27 07:35:46;;;;;;;1.43;0.80;;;;;;;;;;5060956;28;20118;-67
2022/01/27 07:38:13;;;;;;;1.93;0.87;;;;;;;;;;5049598;28;20040;-68
2022/01/27 07:40:40;;;;;;;1.80;0.83;;;;;;;;;;5049873;28;20028;-67
2022/01/27 07:43:10;;;;;;;2.07;0.97;;;;;;;;;;5046547;28;20169;-67
2022/01/27 07:45:36;;;;;;;2.33;1.00;;;;;;;;;;5051926;28;20032;-67
2022/01/27 07:48:03;;;;;;;1.43;0.80;;;;;;;;;;5066614;28;20043;-67
2022/01/27 07:50:31;;;;;;;1.30;0.67;;;;;;;;;;5067943;28;20479;-67
2022/01/27 07:52:57;;;;;;;2.53;1.37;;;;;;;;;;5071595;28;20069;-67
2022/01/27 07:55:24;;;;;;;1.33;0.77;;;;;;;;;;5067063;28;20025;-67
2022/01/27 07:57:51;;;;;;;2.03;0.90;;;;;;;;;;5036110;28;20104;-67
2022/01/27 08:00:18;;;;;;;1.97;1.00;;;;;;;;;;5031530;28;20052;-67
2022/01/27 08:02:45;;;;;;;1.83;0.80;;;;;;;;;;5030021;28;20029;-67
2022/01/27 08:05:12;;;;;;;1.50;0.90;;;;;;;;;;5030160;28;20033;-67
2022/01/27 08:07:39;;;;;;;3.10;1.00;;;;;;;;;;5066388;28;20024;-67
2022/01/27 08:10:07;;;;;;;3.87;0.97;;;;;;;;;;5066098;28;20031;-67
2022/01/27 08:12:39;;;;;;;1.30;0.73;;;;;;;;;;5066599;28;20474;-67
2022/01/27 08:15:07;;;;;;;1.93;1.00;;;;;;;;;;5070266;28;20029;-67
2022/01/27 08:17:34;;;;;;;1.70;0.80;;;;;;;;;;5051238;28;20112;-67
2022/01/27 08:20:01;;;;;;;3.20;0.80;;;;;;;;;;5051249;28;20467;-67
2022/01/27 08:22:28;;;;;;;2.03;1.07;;;;;;;;;;5051129;28;20029;-67
2022/01/27 08:24:56;;;;;;;5.10;0.87;;;;;;;;;;5049968;28;20067;-67
2022/01/27 08:27:28;;;;;;;1.83;0.73;;;;;;;;;;5064256;28;20029;-67
2022/01/27 08:30:02;;;;;;;1.00;0.70;;;;;;;;;;5065922;28;20104;-67
2022/01/27 08:32:40;;;;;;;1.20;0.70;;;;;;;;;;5066015;28;20028;-67
2022/01/27 08:35:08;;;;;;;2.20;0.80;;;;;;;;;;5066537;28;20024;-67
2022/01/27 08:37:35;;;;;;;1.27;0.70;;;;;;;;;;5030982;28;20040;-67
2022/01/27 08:40:02;;;;;;;1.23;0.70;;;;;;;;;;5030840;28;20024;-67
2022/01/27 08:42:29;;;;;;;2.27;0.90;;;;;;;;;;5039076;28;20036;-67
2022/01/27 08:44:57;;;;;;;2.73;0.77;;;;;;;;;;5054156;28;20121;-67
2022/01/27 08:47:24;;;;;;;1.70;0.90;;;;;;;;;;5049247;28;20467;-67
2022/01/27 08:49:51;;;;;;;1.70;0.90;;;;;;;;;;5045073;28;20036;-67
2022/01/27 08:52:18;;;;;;;1.30;0.80;;;;;;;;;;5046874;28;20104;-67
2022/01/27 08:54:47;;;;;;;5.23;1.40;;;;;;;;;;5065217;28;20025;-67
2022/01/27 08:57:15;;;;;;;2.40;1.30;;;;;;;;;;5051622;28;20017;-67
2022/01/27 08:59:43;;;;;;;3.97;1.70;;;;;;;;;;5030594;28;20072;-67
2022/01/27 09:02:14;;;;;;;2.53;1.13;;;;;;;;;;5031780;28;20088;-67
2022/01/27 09:04:42;;;;;;;3.43;1.20;;;;;;;;;;5070528;28;20035;-67
2022/01/27 09:07:11;;;;;;;1.60;0.97;;;;;;;;;;5070318;28;20029;-67
2022/01/27 09:09:38;;;;;;;1.70;0.90;;;;;;;;;;5068930;28;20024;-67
2022/01/27 09:12:06;;;;;;;2.33;1.10;;;;;;;;;;5065193;28;20384;-67
2022/01/27 09:14:35;;;;;;;2.17;1.10;;;;;;;;;;5064659;28;20032;-67
2022/01/27 09:17:02;;;;;;;1.30;0.90;;;;;;;;;;5065184;28;20028;-66
2022/01/27 09:19:31;;;;;;;0.93;0.60;;;;;;;;;;5065202;28;20374;-67
2022/01/27 09:21:58;;;;;;;1.97;0.80;;;;;;;;;;5069348;28;20024;-67
2022/01/27 09:24:37;;;;;;;3.03;0.90;;;;;;;;;;5049936;28;20121;-67
2022/01/27 09:27:05;;;;;;;1.03;0.60;;;;;;;;;;5050284;28;20640;-67
2022/01/27 09:29:32;;;;;;;1.20;0.70;;;;;;;;;;5050188;28;20025;-67
2022/01/27 09:32:02;;;;;;;1.30;0.80;;;;;;;;;;5049201;28;20028;-67
2022/01/27 09:34:30;;;;;;;1.03;0.70;;;;;;;;;;5064638;28;20108;-67
2022/01/27 09:37:01;;;;;;;3.73;1.07;;;;;;;;;;5063128;28;20013;-67
2022/01/27 09:39:31;;;;;;;7.60;2.37;;;;;;;;;;5064414;28;20050;-67
2022/01/27 09:41:59;;;;;;;5.60;2.43;;;;;;;;;;5064856;28;20467;-67
2022/01/27 09:44:29;;;;;;;3.70;1.60;;;;;;;;;;5041789;28;20033;-67
2022/01/27 09:46:59;;;;;;;3.00;1.20;;;;;;;;;;5049845;28;20029;-67
2022/01/27 09:49:40;;;;;;;3.90;1.30;;;;;;;;;;5049758;28;20539;-67
2022/01/27 09:52:07;;;;;;;1.53;0.80;;;;;;;;;;5050276;28;20025;-67
2022/01/27 09:54:35;;;;;;;3.03;0.90;;;;;;;;;;5068170;28;20093;-67
2022/01/27 09:57:04;;;;;;;1.87;0.80;;;;;;;;;;5053581;28;20037;-67
2022/01/27 09:59:31;;;;;;;2.70;1.10;;;;;;;;;;5024536;28;20487;-67
2022/01/27 10:02:00;;;;;;;6.23;1.87;;;;;;;;;;5028027;28;20044;-67
2022/01/27 10:04:45;;;;;;;2.20;1.00;;;;;;;;;;5045025;28;20371;-67
2022/01/27 10:07:15;;;;;;;2.53;1.25;;;;;;;;;;5049640;28;20032;-67
2022/01/27 10:10:02;;;;;;;1.20;0.70;;;;;;;;;;5049377;28;20124;-67
2022/01/27 10:12:36;;;;;;;1.77;0.90;;;;;;;;;;5054856;28;20481;-67
2022/01/27 10:15:12;;;;;;;4.03;1.00;;;;;;;;;;5069286;28;20424;-67
2022/01/27 10:17:59;;;;;;;4.03;1.23;;;;;;;;;;5057448;28;20101;-67
2022/01/27 10:20:27;;;;;;;2.20;1.00;;;;;;;;;;5043585;28;20013;-67
2022/01/27 10:23:17;;;;;;;2.43;1.10;;;;;;;;;;5044220;28;20048;-67
2022/01/27 10:25:47;;;;;;;1.20;0.80;;;;;;;;;;5044155;28;20403;-67
2022/01/27 10:28:29;;;;;;;2.50;0.90;;;;;;;;;;5060000;28;20025;-67
2022/01/27 10:31:02;;;;;;;2.00;1.20;;;;;;;;;;5069387;28;20021;-67
2022/01/27 10:33:42;;;;;;;1.20;0.80;;;;;;;;;;5053344;28;20037;-67
2022/01/27 10:36:24;;;;;;;1.73;1.00;;;;;;;;;;5048934;28;20732;-67
2022/01/27 10:38:56;;;;;;;5.60;1.10;;;;;;;;;;5048631;28;20464;-67
2022/01/27 10:41:27;;;;;;;1.87;0.97;;;;;;;;;;5043931;28;20152;-67
2022/01/27 10:44:10;;;;;;;1.70;0.90;;;;;;;;;;5053478;28;20029;-67
2022/01/27 10:46:48;;;;;;;4.00;1.00;;;;;;;;;;5043951;28;20033;-67
2022/01/27 10:49:27;;;;;;;2.00;1.20;;;;;;;;;;5045022;28;20029;-67
2022/01/27 10:51:56;;;;;;;1.43;0.90;;;;;;;;;;5049641;28;20056;-67
2022/01/27 10:57:03;;;;;;;2.23;1.10;;;;;;;;;;5057600;28;20033;-67
2022/01/27 10:59:32;;;;;;;1.87;1.00;;;;;;;;;;5028885;28;20349;-66
2022/01/27 11:02:04;;;;;;;3.80;0.80;;;;;;;;;;5028749;28;20037;-66
2022/01/27 11:04:37;;;;;;;2.87;1.30;;;;;;;;;;5063643;28;20033;-67
2022/01/27 11:07:05;;;;;;;5.00;1.00;;;;;;;;;;5063386;28;20035;-67
2022/01/27 11:09:34;;;;;;;1.53;1.10;;;;;;;;;;5063316;28;20024;-67
2022/01/27 11:12:14;;;;;;;1.60;0.90;;;;;;;;;;5064139;28;20021;-67
2022/01/27 11:14:42;;;;;;;4.73;1.17;;;;;;;;;;5052193;28;20387;-67
2022/01/27 11:17:16;;;;;;;3.70;0.63;;;;;;;;;;5052431;28;20498;-67
2022/01/27 11:25:49;;;;;;;1.10;0.73;;;;;;;;;;5068682;28;20301;-67
2022/01/27 11:27:58;;;;;;;2.03;1.00;;;;;;;;;;5066614;27;20308;-67
2022/01/27 11:30:43;;;;;;;1.60;0.80;;;;;;;;;;5066894;28;20269;-67
2022/01/27 11:33:10;;;;;;;;;;;;;;;;;;5056696;28;20266;-67
2022/01/27 11:35:39;;;;;;;1.50;0.80;;;;;;;;;;5051492;28;19951;-66
2022/01/27 11:38:08;;;;;;;1.33;0.70;;;;;;;;;;5051681;28;20294;-67
2022/01/27 11:40:45;;;;;;;3.83;1.07;;;;;;;;;;5051568;28;20809;-67
2022/01/27 11:43:16;;;;;;;2.87;1.20;;;;;;;;;;5059568;28;20301;-67
2022/01/27 11:45:45;;;;;;;4.23;1.50;;;;;;;;;;5050958;28;20297;-67
2022/01/27 11:48:14;;;;;;;2.60;1.37;;;;;;;;;;5046709;28;20282;-67
2022/01/27 11:50:55;;;;;;;2.77;1.10;;;;;;;;;;5046385;28;20780;-66
2022/01/27 11:53:45;;;;;;;2.30;1.10;;;;;;;;;;5057383;28;20297;-67
2022/01/27 11:56:16;;;;;;;3.00;1.03;;;;;;;;;;5065824;28;20261;-66
2022/01/27 11:58:44;;;;;;;2.87;1.10;;;;;;;;;;5035299;28;20254;-67
2022/01/27 12:01:16;;;;;;;2.00;1.00;;;;;;;;;;5031701;28;20271;-66
2022/01/27 12:04:02;;;;;;;2.80;1.10;;;;;;;;;;5059215;28;20280;-66
2022/01/27 12:06:32;;;;;;;;;;;;;;;;;;5071754;28;20340;-66
2022/01/27 12:09:22;;;;;;;2.03;1.10;;;;;;;;;;5051175;27;20263;-66
2022/01/27 12:11:54;;;;;;;2.00;1.10;;;;;;;;;;5072164;28;20265;-66
2022/01/27 12:14:25;;;;;;;2.53;1.30;;;;;;;;;;5047155;28;20271;-66
2022/01/27 12:17:10;;;;;;;2.57;1.20;;;;;;;;;;5045894;28;20250;-66
2022/01/27 12:19:53;;;;;;;2.75;1.10;;;;;;;;;;5049409;28;20262;-66
2022/01/27 12:22:23;;;;;;;1.97;1.10;;;;;;;;;;5052413;28;20021;-66
2022/01/27 12:24:58;;;;;;;1.93;1.10;;;;;;;;;;5070243;28;20288;-67
2022/01/27 12:27:25;;;;;;;2.20;1.27;;;;;;;;;;5070775;28;20348;-66
2022/01/27 12:29:53;;;;;;;2.33;1.20;;;;;;;;;;5070994;28;20490;-66
2022/01/27 12:32:25;;;;;;;2.10;1.20;;;;;;;;;;5064433;28;20352;-66
2022/01/27 12:35:02;;;;;;;3.13;1.93;;;;;;;;;;5046041;28;20293;-66
2022/01/27 12:37:34;;;;;;;2.03;1.03;;;;;;;;;;5045684;28;20274;-66
2022/01/27 12:40:03;;;;;;;3.10;1.10;;;;;;;;;;5045609;28;20266;-66
2022/01/27 12:42:36;;;;;;;2.03;0.93;;;;;;;;;;5052329;28;20297;-67
2022/01/27 12:45:09;;;;;;;1.50;0.87;;;;;;;;;;5053356;28;20336;-65
2022/01/27 12:47:41;;;;;;;2.77;1.30;;;;;;;;;;5050925;28;20254;-67
2022/01/27 12:50:12;;;;;;;3.20;1.03;;;;;;;;;;5050525;28;20261;-66
2022/01/27 12:52:42;;;;;;;2.83;1.20;;;;;;;;;;5053409;28;20274;-67
2022/01/27 12:55:09;;;;;;;3.63;1.60;;;;;;;;;;5065632;28;20795;-66
2022/01/27 12:57:36;;;;;;;3.53;1.70;;;;;;;;;;5045140;28;20259;-67
2022/01/27 13:00:05;;;;;;;1.70;1.13;;;;;;;;;;5025623;28;20267;-66
2022/01/27 13:02:32;;;;;;;3.43;1.70;;;;;;;;;;5029363;28;20259;-66
2022/01/27 13:05:00;;;;;;;3.63;1.70;;;;;;;;;;5070195;28;20285;-66
2022/01/27 13:07:27;;;;;;;2.87;1.60;;;;;;;;;;5070544;28;20342;-66
2022/01/27 13:09:55;;;;;;;4.07;1.40;;;;;;;;;;5070366;28;20253;-66
2022/01/27 13:12:28;;;;;;;4.27;1.80;;;;;;;;;;5069802;28;20341;-66
2022/01/27 13:15:16;;;;;;;7.27;2.40;;;;;;;;;;5050022;28;20290;-67
2022/01/27 13:17:57;;;;;;;2.43;1.30;;;;;;;;;;5045009;28;20471;-66
2022/01/27 13:20:38;;;;;;;2.67;1.50;;;;;;;;;;5045218;28;20276;-66
2022/01/27 13:23:14;;;;;;;4.90;1.43;;;;;;;;;;5050988;28;20471;-66
2022/01/27 13:25:47;;;;;;;2.13;1.20;;;;;;;;;;5047053;28;20300;-66
2022/01/27 13:28:19;;;;;;;6.33;1.57;;;;;;;;;;5050276;28;20258;-66
2022/01/27 13:30:46;;;;;;;6.70;2.00;;;;;;;;;;5050170;28;20265;-66
2022/01/27 13:33:16;;;;;;;4.00;2.03;;;;;;;;;;5050054;28;20262;-66
2022/01/27 13:35:44;;;;;;;3.80;1.70;;;;;;;;;;5068213;28;20348;-66
2022/01/27 13:41:16;;;;;;;4.53;1.60;;;;;;;;;;5064639;28;20261;-66
2022/01/27 13:43:45;;;;;;;4.55;1.85;;;;;;;;;;5060224;28;20266;-66
2022/01/27 13:46:32;;;;;;;3.37;1.47;;;;;;;;;;5064800;28;20060;-67
2022/01/27 13:49:05;;;;;;;6.20;2.17;;;;;;;;;;5068546;28;20266;-66
2022/01/27 13:51:32;;;;;;;3.03;1.90;;;;;;;;;;5069648;28;20261;-66
2022/01/27 13:54:04;;;;;;;2.97;1.70;;;;;;;;;;5064517;28;20360;-66
2022/01/27 13:56:41;;;;;;;3.43;1.80;;;;;;;;;;5045662;28;20293;-66
2022/01/27 13:59:16;;;;;;;3.00;1.80;;;;;;;;;;5037821;28;20270;-66
2022/01/27 14:01:46;;;;;;;3.50;1.70;;;;;;;;;;5044572;28;20258;-66
2022/01/27 14:04:14;;;;;;;6.03;1.87;;;;;;;;;;5043974;28;20386;-67
2022/01/27 14:06:49;;;;;;;7.40;2.27;;;;;;;;;;5044468;28;20262;-66
2022/01/27 14:09:17;;;;;;;7.65;2.33;;;;;;;;;;5050887;28;20268;-67
2022/01/27 14:11:44;;;;;;;6.57;2.13;;;;;;;;;;5069226;28;20091;-67
2022/01/27 14:14:11;;;;;;;4.00;1.97;;;;;;;;;;5069110;28;20253;-67
2022/01/27 14:16:38;;;;;;;5.57;2.20;;;;;;;;;;5069473;28;20036;-66
2022/01/27 14:19:12;;;;;;;3.43;2.30;;;;;;;;;;5067261;28;20269;-67
2022/01/27 14:21:45;;;;;;;5.27;2.20;;;;;;;;;;5069264;28;20257;-66
2022/01/27 14:24:20;;;;;;;6.73;1.80;;;;;;;;;;5064209;28;20796;-67
2022/01/27 14:27:00;;;;;;;5.30;1.70;;;;;;;;;;5064074;28;20265;-66
2022/01/27 14:29:27;;;;;;;5.20;2.10;;;;;;;;;;5059846;28;20081;-66
2022/01/27 14:31:55;;;;;;;5.77;1.70;;;;;;;;;;5044229;28;20033;-65
2022/01/27 14:34:31;;;;;;;2.93;1.70;;;;;;;;;;5049145;28;20472;-66
2022/01/27 14:36:59;;;;;;;3.60;1.77;;;;;;;;;;5049121;28;20494;-65
2022/01/27 14:39:26;;;;;;;2.60;1.43;;;;;;;;;;5052073;28;20031;-66
2022/01/27 14:41:53;;;;;;;5.50;2.00;;;;;;;;;;5068737;28;20024;-66
2022/01/27 14:44:20;;;;;;;7.63;1.80;;;;;;;;;;5056506;28;20036;-66
2022/01/27 14:46:49;;;;;;;2.63;1.70;;;;;;;;;;5043784;28;20025;-66
2022/01/27 14:49:17;;;;;;;2.30;1.40;;;;;;;;;;5045129;28;20390;-66
2022/01/27 14:51:46;;;;;;;4.30;2.17;;;;;;;;;;5063857;28;20506;-66
2022/01/27 14:54:12;;;;;;;3.77;2.17;;;;;;;;;;5063983;28;20644;-67
2022/01/27 14:56:40;;;;;;;4.83;2.83;;;;;;;;;;5063115;28;20103;-66
2022/01/27 14:59:08;;;;;;;5.13;1.70;;;;;;;;;;5030186;28;20029;-67
2022/01/27 15:01:35;;;;;;;5.57;2.10;;;;;;;;;;5028854;28;20034;-69
2022/01/27 15:04:01;;;;;;;3.40;1.80;;;;;;;;;;5028802;28;20402;-69
2022/01/27 15:06:28;;;;;;;2.80;1.60;;;;;;;;;;5036630;28;20056;-70
2022/01/27 15:08:56;;;;;;;4.67;2.17;;;;;;;;;;5043437;28;20052;-69
2022/01/27 15:11:23;;;;;;;3.00;1.77;;;;;;;;;;5043703;28;20021;-69
2022/01/27 15:13:59;;;;;;;4.97;2.10;;;;;;;;;;5043217;28;20017;-69
2022/01/27 15:19:35;;;;;;;9.02;3.80;;;;;;;;;;5068471;28;20040;-69
2022/01/27 15:21:59;;;;;;;9.57;3.57;;;;;;;;;;5055801;28;20077;-69
2022/01/27 15:24:25;;;;;;;9.33;4.00;;;;;;;;;;5048422;28;20037;-70
2022/01/27 15:26:53;;;;;;;16.20;4.20;;;;;;;;;;5048705;28;20021;-69
2022/01/27 15:29:27;;;;;;;4.97;3.07;;;;;;;;;;5046638;28;20029;-70
2022/01/27 15:31:53;;;;;;;8.57;3.03;;;;;;;;;;5052722;28;20025;-69
2022/01/27 15:34:20;;;;;;;5.20;3.33;;;;;;;;;;5062758;28;20103;-70
2022/01/27 15:36:47;;;;;;;12.00;4.13;;;;;;;;;;5053428;28;20101;-70
2022/01/27 15:39:15;;;;;;;6.83;3.30;;;;;;;;;;5044578;28;20036;-70
2022/01/27 15:41:43;;;;;;;6.43;3.30;;;;;;;;;;5048519;28;20031;-70
2022/01/27 15:44:10;;;;;;;9.57;2.50;;;;;;;;;;5048243;28;20029;-70
2022/01/27 15:46:38;;;;;;;3.13;2.00;;;;;;;;;;5055191;28;20028;-70
2022/01/27 15:49:05;;;;;;;5.03;1.90;;;;;;;;;;5067720;28;20077;-70
2022/01/27 15:51:32;;;;;;;4.77;2.40;;;;;;;;;;5066360;28;20033;-70
2022/01/27 15:54:02;;;;;;;6.13;2.23;;;;;;;;;;5060940;28;20583;-70
2022/01/27 15:56:31;;;;;;;4.70;2.70;;;;;;;;;;5038982;28;20456;-70